createdAt,value
2023-05-12T00:00:39.924Z,9.01
2023-05-12T00:01:36.815Z,10.60
2023-05-12T00:02:33.693Z,11.22
2023-05-12T00:03:30.734Z,11.13
2023-05-12T00:04:27.670Z,11.10
2023-05-12T00:05:24.639Z,10.67
2023-05-12T00:06:21.826Z,10.34
2023-05-12T00:07:18.616Z,10.42
2023-05-12T00:08:15.728Z,11.22
2023-05-12T00:09:12.478Z,10.18
2023-05-12T00:10:09.691Z,10.48
2023-05-12T00:11:06.631Z,11.12
2023-05-12T00:12:03.784Z,10.30
2023-05-12T00:13:00.685Z,11.32
2023-05-12T00:13:57.782Z,10.86
2023-05-12T00:14:54.969Z,10.34
2023-05-12T00:15:51.892Z,11.23
2023-05-12T00:16:51.873Z,10.37
2023-05-12T00:17:48.922Z,10.75
2023-05-12T00:18:45.859Z,11.26
2023-05-12T00:19:44.149Z,11.05
2023-05-12T00:20:41.002Z,11.20
2023-05-12T00:21:37.864Z,10.22
2023-05-12T00:22:34.635Z,11.08
2023-05-12T00:23:31.460Z,9.36
2023-05-12T00:24:28.393Z,9.71
2023-05-12T00:25:25.245Z,9.56
2023-05-12T00:26:22.187Z,11.19
2023-05-12T00:27:19.107Z,10.65
2023-05-12T00:28:16.893Z,9.75
2023-05-12T00:29:13.713Z,11.17
2023-05-12T00:30:11.653Z,11.16
2023-05-12T00:31:08.694Z,10.20
2023-05-12T00:32:05.971Z,11.17
2023-05-12T00:33:03.118Z,10.63
2023-05-12T00:33:59.929Z,10.98
2023-05-12T00:34:57.476Z,10.36
2023-05-12T00:35:54.324Z,10.32
2023-05-12T00:36:51.724Z,11.17
2023-05-12T00:37:48.561Z,10.40
2023-05-12T00:38:45.325Z,10.93
2023-05-12T00:39:42.470Z,8.80
2023-05-12T00:40:41.435Z,10.94
2023-05-12T00:41:38.276Z,11.18
2023-05-12T00:42:35.882Z,10.59
2023-05-12T00:43:33.754Z,10.21
2023-05-12T00:44:30.571Z,10.36
2023-05-12T00:45:29.490Z,11.08
2023-05-12T00:46:27.607Z,10.44
2023-05-12T00:47:24.565Z,10.79
2023-05-12T00:48:21.751Z,10.79
2023-05-12T00:49:19.390Z,10.37
2023-05-12T00:50:18.404Z,10.14
2023-05-12T00:51:17.031Z,10.54
2023-05-12T00:52:13.894Z,10.77
2023-05-12T00:53:12.383Z,9.98
2023-05-12T00:54:09.794Z,10.86
2023-05-12T00:55:06.893Z,10.87
2023-05-12T00:56:04.185Z,10.09
2023-05-12T00:57:01.008Z,10.64
2023-05-12T00:57:58.156Z,9.94
2023-05-12T00:58:55.991Z,10.73
2023-05-12T00:59:52.956Z,9.20
2023-05-12T01:00:50.034Z,10.73
2023-05-12T01:01:49.177Z,10.32
2023-05-12T01:02:46.078Z,10.60
2023-05-12T01:03:44.045Z,10.49
2023-05-12T01:04:40.978Z,10.66
2023-05-12T01:05:50.750Z,9.67
2023-05-12T01:07:05.237Z,9.91
2023-05-12T01:08:04.363Z,10.66
2023-05-12T01:09:01.760Z,10.60
2023-05-12T01:09:59.411Z,9.77
2023-05-12T01:10:56.207Z,9.94
2023-05-12T01:11:53.096Z,10.27
2023-05-12T01:12:49.924Z,10.46
2023-05-12T01:13:46.712Z,10.65
2023-05-12T01:14:43.691Z,9.82
2023-05-12T01:15:46.105Z,9.77
2023-05-12T01:17:08.692Z,10.40
2023-05-12T01:18:07.754Z,9.98
2023-05-12T01:19:10.640Z,9.76
2023-05-12T01:20:12.115Z,7.94
2023-05-12T01:21:10.434Z,10.64
2023-05-12T01:22:08.799Z,10.15
2023-05-12T01:23:07.054Z,10.17
2023-05-12T01:24:09.928Z,10.49
2023-05-12T01:25:12.704Z,9.90
2023-05-12T01:26:11.004Z,10.59
2023-05-12T01:27:08.705Z,10.41
2023-05-12T01:28:07.648Z,9.57
2023-05-12T01:29:06.186Z,9.95
2023-05-12T01:30:05.275Z,10.47
2023-05-12T01:31:04.513Z,7.72
2023-05-12T01:32:03.013Z,9.56
2023-05-12T01:33:00.320Z,9.52
2023-05-12T01:33:57.134Z,10.47
2023-05-12T01:34:53.859Z,9.22
2023-05-12T01:35:50.623Z,10.10
2023-05-12T01:36:47.398Z,9.42
2023-05-12T01:37:44.219Z,8.75
2023-05-12T01:38:41.106Z,10.26
2023-05-12T01:39:38.447Z,9.81
2023-05-12T01:40:35.289Z,10.06
2023-05-12T01:41:32.028Z,9.35
2023-05-12T01:42:28.870Z,9.39
2023-05-12T01:43:25.675Z,9.75
2023-05-12T01:44:22.479Z,9.29
2023-05-12T01:45:19.288Z,9.90
2023-05-12T01:46:16.150Z,10.01
2023-05-12T01:47:15.785Z,9.88
2023-05-12T01:48:12.653Z,9.33
2023-05-12T01:49:09.501Z,9.88
2023-05-12T01:50:07.336Z,8.31
2023-05-12T01:51:08.747Z,9.70
2023-05-12T01:52:05.951Z,9.40
2023-05-12T01:53:02.744Z,9.85
2023-05-12T01:53:59.552Z,9.06
2023-05-12T01:54:56.395Z,10.06
2023-05-12T01:55:53.269Z,10.11
2023-05-12T01:56:50.084Z,10.16
2023-05-12T01:57:46.887Z,9.82
2023-05-12T01:58:43.646Z,9.79
2023-05-12T01:59:40.486Z,9.29
2023-05-12T02:00:37.277Z,8.88
2023-05-12T02:01:34.222Z,8.60
2023-05-12T02:02:31.801Z,9.76
2023-05-12T02:03:28.817Z,8.76
2023-05-12T02:04:25.682Z,9.85
2023-05-12T02:05:22.952Z,8.85
2023-05-12T02:06:19.702Z,9.93
2023-05-12T02:07:16.533Z,9.03
2023-05-12T02:08:13.264Z,9.14
2023-05-12T02:09:09.998Z,9.74
2023-05-12T02:10:07.839Z,9.79
2023-05-12T02:11:08.418Z,8.51
2023-05-12T02:12:05.506Z,9.32
2023-05-12T02:13:02.373Z,10.01
2023-05-12T02:13:59.062Z,8.41
2023-05-12T02:14:55.784Z,9.74
2023-05-12T02:15:52.538Z,9.18
2023-05-12T02:16:52.726Z,9.69
2023-05-12T02:17:53.915Z,9.20
2023-05-12T02:18:50.755Z,9.51
2023-05-12T02:19:47.559Z,8.85
2023-05-12T02:20:44.298Z,9.42
2023-05-12T02:21:41.000Z,9.49
2023-05-12T02:22:37.776Z,9.77
2023-05-12T02:23:34.681Z,8.31
2023-05-12T02:24:31.499Z,9.36
2023-05-12T02:25:28.219Z,8.04
2023-05-12T02:26:25.005Z,9.89
2023-05-12T02:27:21.829Z,9.28
2023-05-12T02:28:18.650Z,9.67
2023-05-12T02:29:15.541Z,9.65
2023-05-12T02:30:12.437Z,8.98
2023-05-12T02:31:09.453Z,9.59
2023-05-12T02:32:06.363Z,9.89
2023-05-12T02:33:05.347Z,8.88
2023-05-12T02:34:04.431Z,9.73
2023-05-12T02:35:02.801Z,8.28
2023-05-12T02:35:59.596Z,8.43
2023-05-12T02:36:56.329Z,8.82
2023-05-12T02:37:53.142Z,8.19
2023-05-12T02:38:49.951Z,8.59
2023-05-12T02:39:46.678Z,8.97
2023-05-12T02:40:43.643Z,8.96
2023-05-12T02:41:40.417Z,6.67
2023-05-12T02:42:38.542Z,9.51
2023-05-12T02:43:35.441Z,9.61
2023-05-12T02:44:32.253Z,9.11
2023-05-12T02:45:29.068Z,8.86
2023-05-12T02:46:26.199Z,9.47
2023-05-12T02:47:23.163Z,9.19
2023-05-12T02:48:19.966Z,9.39
2023-05-12T02:49:16.847Z,8.99
2023-05-12T02:50:13.615Z,9.39
2023-05-12T02:51:10.400Z,9.27
2023-05-12T02:52:07.331Z,9.30
2023-05-12T02:53:04.245Z,9.44
2023-05-12T02:54:01.534Z,9.67
2023-05-12T02:54:58.299Z,9.29
2023-05-12T02:55:55.211Z,8.27
2023-05-12T02:56:52.149Z,7.44
2023-05-12T02:57:49.088Z,9.10
2023-05-12T02:58:45.965Z,9.40
2023-05-12T02:59:42.673Z,9.15
2023-05-12T03:00:39.437Z,8.47
2023-05-12T03:01:36.174Z,8.48
2023-05-12T03:02:38.472Z,7.18
2023-05-12T03:03:35.450Z,9.00
2023-05-12T03:04:33.181Z,6.60
2023-05-12T03:05:29.925Z,9.17
2023-05-12T03:06:26.827Z,8.99
2023-05-12T03:07:23.613Z,7.72
2023-05-12T03:08:20.638Z,8.85
2023-05-12T03:09:17.542Z,8.56
2023-05-12T03:10:14.326Z,8.41
2023-05-12T03:11:11.104Z,9.03
2023-05-12T03:12:08.626Z,8.30
2023-05-12T03:13:05.363Z,8.87
2023-05-12T03:14:02.090Z,8.18
2023-05-12T03:14:58.889Z,8.45
2023-05-12T03:15:57.159Z,8.72
2023-05-12T03:16:53.994Z,9.41
2023-05-12T03:17:50.854Z,9.52
2023-05-12T03:18:47.748Z,9.44
2023-05-12T03:19:44.621Z,9.16
2023-05-12T03:20:41.642Z,7.31
2023-05-12T03:21:38.673Z,9.30
2023-05-12T03:22:36.062Z,9.41
2023-05-12T03:23:33.059Z,9.24
2023-05-12T03:24:30.220Z,9.00
2023-05-12T03:25:27.039Z,8.18
2023-05-12T03:26:23.850Z,9.50
2023-05-12T03:27:20.948Z,9.31
2023-05-12T03:28:17.811Z,8.96
2023-05-12T03:29:14.760Z,9.69
2023-05-12T03:30:12.189Z,8.47
2023-05-12T03:31:08.962Z,8.92
2023-05-12T03:32:06.278Z,9.46
2023-05-12T03:33:03.039Z,9.46
2023-05-12T03:33:59.837Z,9.76
2023-05-12T03:34:56.902Z,9.56
2023-05-12T03:35:53.778Z,8.73
2023-05-12T03:36:50.478Z,8.88
2023-05-12T03:37:47.216Z,9.35
2023-05-12T03:38:44.279Z,9.55
2023-05-12T03:39:41.196Z,7.91
2023-05-12T03:40:37.947Z,9.48
2023-05-12T03:41:35.377Z,8.81
2023-05-12T03:42:32.170Z,8.28
2023-05-12T03:43:28.948Z,9.44
2023-05-12T03:44:25.717Z,8.48
2023-05-12T03:45:22.430Z,8.64
2023-05-12T03:46:19.205Z,9.18
2023-05-12T03:47:16.076Z,8.70
2023-05-12T03:48:12.972Z,8.06
2023-05-12T03:49:10.080Z,9.65
2023-05-12T03:50:08.252Z,8.86
2023-05-12T03:51:05.189Z,8.91
2023-05-12T03:52:02.203Z,9.41
2023-05-12T03:52:59.087Z,7.74
2023-05-12T03:53:55.899Z,9.44
2023-05-12T03:54:52.695Z,9.52
2023-05-12T03:55:49.472Z,8.72
2023-05-12T03:56:46.232Z,8.05
2023-05-12T03:57:43.033Z,8.68
2023-05-12T03:58:39.823Z,8.04
2023-05-12T03:59:36.556Z,9.29
2023-05-12T04:00:33.824Z,8.85
2023-05-12T04:01:30.572Z,9.69
2023-05-12T04:02:27.547Z,9.39
2023-05-12T04:03:24.510Z,9.68
2023-05-12T04:04:21.572Z,8.18
2023-05-12T04:05:18.320Z,9.25
2023-05-12T04:06:15.048Z,8.71
2023-05-12T04:07:12.464Z,9.76
2023-05-12T04:08:09.587Z,9.59
2023-05-12T04:09:06.416Z,8.20
2023-05-12T04:10:03.650Z,9.18
2023-05-12T04:11:01.994Z,9.57
2023-05-12T04:11:58.968Z,8.88
2023-05-12T04:12:55.761Z,9.13
2023-05-12T04:13:53.154Z,9.76
2023-05-12T04:14:50.068Z,9.97
2023-05-12T04:15:47.220Z,9.49
2023-05-12T04:16:44.216Z,9.61
2023-05-12T04:17:41.368Z,8.41
2023-05-12T04:18:38.284Z,9.81
2023-05-12T04:19:35.262Z,9.16
2023-05-12T04:20:32.159Z,9.80
2023-05-12T04:21:29.040Z,9.67
2023-05-12T04:22:26.063Z,9.76
2023-05-12T04:23:23.054Z,9.09
2023-05-12T04:24:19.787Z,9.82
2023-05-12T04:25:16.719Z,9.73
2023-05-12T04:26:13.504Z,8.82
2023-05-12T04:27:10.390Z,9.96
2023-05-12T04:28:08.393Z,9.98
2023-05-12T04:29:06.517Z,10.06
2023-05-12T04:30:03.340Z,9.12
2023-05-12T04:31:07.004Z,9.86
2023-05-12T04:32:04.232Z,10.06
2023-05-12T04:33:01.740Z,9.94
2023-05-12T04:33:58.570Z,8.70
2023-05-12T04:34:56.675Z,8.62
2023-05-12T04:35:57.194Z,9.75
2023-05-12T04:36:53.971Z,9.79
2023-05-12T04:37:51.456Z,8.94
2023-05-12T04:38:48.449Z,8.93
2023-05-12T04:39:45.249Z,9.27
2023-05-12T04:40:42.020Z,9.10
2023-05-12T04:41:38.780Z,9.90
2023-05-12T04:42:36.229Z,9.03
2023-05-12T04:44:32.706Z,9.68
2023-05-12T04:45:29.659Z,9.58
2023-05-12T04:46:27.025Z,10.07
2023-05-12T04:47:23.933Z,9.26
2023-05-12T04:48:21.193Z,9.35
2023-05-12T04:49:17.899Z,10.09
2023-05-12T04:50:14.785Z,9.01
2023-05-12T04:51:11.614Z,9.43
2023-05-12T04:52:08.431Z,10.21
2023-05-12T04:53:05.152Z,9.25
2023-05-12T04:54:02.313Z,10.13
2023-05-12T04:54:59.104Z,8.43
2023-05-12T04:55:56.693Z,9.06
2023-05-12T04:56:53.508Z,9.45
2023-05-12T04:57:50.378Z,8.83
2023-05-12T04:58:47.190Z,8.87
2023-05-12T04:59:43.904Z,9.54
2023-05-12T05:00:40.890Z,9.10
2023-05-12T05:01:37.809Z,9.01
2023-05-12T05:02:34.689Z,9.15
2023-05-12T05:03:31.903Z,9.84
2023-05-12T05:04:28.951Z,8.76
2023-05-12T05:05:25.773Z,10.09
2023-05-12T05:06:23.053Z,10.26
2023-05-12T05:07:20.198Z,8.99
2023-05-12T05:08:17.008Z,10.10
2023-05-12T05:09:13.879Z,9.35
2023-05-12T05:10:11.101Z,7.81
2023-05-12T05:11:07.806Z,9.80
2023-05-12T05:12:04.840Z,9.26
2023-05-12T05:13:01.670Z,9.54
2023-05-12T05:13:58.452Z,10.13
2023-05-12T05:14:55.269Z,10.22
2023-05-12T05:15:53.897Z,10.28
2023-05-12T05:16:50.935Z,10.44
2023-05-12T05:17:49.577Z,10.00
2023-05-12T05:18:46.848Z,8.12
2023-05-12T05:19:53.651Z,9.43
2023-05-12T05:20:58.587Z,7.75
2023-05-12T05:21:55.932Z,10.47
2023-05-12T05:22:52.743Z,9.73
2023-05-12T05:23:49.634Z,10.36
2023-05-12T05:24:46.602Z,9.79
2023-05-12T05:25:43.420Z,9.37
2023-05-12T05:26:40.667Z,10.44
2023-05-12T05:27:38.886Z,9.69
2023-05-12T05:28:36.657Z,10.15
2023-05-12T05:29:33.437Z,8.99
2023-05-12T05:30:30.291Z,9.93
2023-05-12T05:31:28.815Z,9.58
2023-05-12T05:32:26.953Z,9.62
2023-05-12T05:33:24.177Z,9.56
2023-05-12T05:34:20.995Z,10.43
2023-05-12T05:35:18.058Z,10.47
2023-05-12T05:36:15.127Z,9.91
2023-05-12T05:37:11.874Z,10.56
2023-05-12T05:38:08.767Z,10.15
2023-05-12T05:39:05.666Z,10.50
2023-05-12T05:40:02.469Z,10.76
2023-05-12T05:40:59.345Z,9.82
2023-05-12T05:41:56.421Z,10.76
2023-05-12T05:42:53.316Z,10.85
2023-05-12T05:43:50.248Z,9.50
2023-05-12T05:44:47.022Z,10.05
2023-05-12T05:45:44.551Z,9.38
2023-05-12T05:46:41.330Z,10.26
2023-05-12T05:47:38.233Z,10.33
2023-05-12T05:48:36.513Z,10.70
2023-05-12T05:49:33.262Z,10.68
2023-05-12T05:50:30.058Z,9.39
2023-05-12T05:51:27.410Z,9.85
2023-05-12T05:52:24.515Z,9.99
2023-05-12T05:53:22.849Z,10.53
2023-05-12T05:54:19.759Z,10.72
2023-05-12T05:55:16.594Z,10.62
2023-05-12T05:56:13.280Z,10.16
2023-05-12T05:57:10.079Z,10.49
2023-05-12T05:58:06.835Z,10.04
2023-05-12T05:59:05.083Z,10.74
2023-05-12T06:00:02.076Z,10.34
2023-05-12T06:01:00.388Z,10.19
2023-05-12T06:01:57.176Z,10.15
2023-05-12T06:02:54.079Z,9.31
2023-05-12T06:03:50.985Z,10.16
2023-05-12T06:04:47.855Z,10.16
2023-05-12T06:05:44.801Z,10.72
2023-05-12T06:06:41.664Z,9.84
2023-05-12T06:07:38.433Z,10.81
2023-05-12T06:08:35.462Z,10.70
2023-05-12T06:09:32.489Z,10.64
2023-05-12T06:10:29.250Z,10.11
2023-05-12T06:11:26.026Z,10.14
2023-05-12T06:12:22.809Z,10.26
2023-05-12T06:13:19.548Z,10.90
2023-05-12T06:14:17.208Z,11.02
2023-05-12T06:15:14.021Z,10.68
2023-05-12T06:16:10.842Z,10.75
2023-05-12T06:17:07.789Z,10.79
2023-05-12T06:18:04.849Z,9.99
2023-05-12T06:19:01.758Z,9.72
2023-05-12T06:19:58.513Z,9.90
2023-05-12T06:20:55.730Z,10.19
2023-05-12T06:21:52.849Z,10.18
2023-05-12T06:22:49.796Z,10.59
2023-05-12T06:23:46.556Z,9.94
2023-05-12T06:24:43.338Z,11.09
2023-05-12T06:25:40.124Z,9.85
2023-05-12T06:26:37.358Z,11.13
2023-05-12T06:27:34.139Z,10.14
2023-05-12T06:28:31.001Z,10.36
2023-05-12T06:29:27.887Z,10.53
2023-05-12T06:30:24.765Z,11.02
2023-05-12T06:31:21.731Z,10.75
2023-05-12T06:32:19.090Z,10.97
2023-05-12T06:33:16.053Z,10.73
2023-05-12T06:34:12.932Z,10.15
2023-05-12T06:35:10.119Z,10.94
2023-05-12T06:36:07.814Z,11.04
2023-05-12T06:37:04.679Z,10.29
2023-05-12T06:38:01.501Z,10.37
2023-05-12T06:38:58.358Z,10.85
2023-05-12T06:39:55.120Z,10.92
2023-05-12T06:40:51.935Z,10.92
2023-05-12T06:41:48.774Z,10.77
2023-05-12T06:42:45.644Z,10.29
2023-05-12T06:43:42.781Z,10.29
2023-05-12T06:44:41.206Z,10.99
2023-05-12T06:45:38.989Z,10.43
2023-05-12T06:46:35.765Z,10.74
2023-05-12T06:47:32.670Z,11.08
2023-05-12T06:48:29.506Z,10.56
2023-05-12T06:49:26.417Z,11.08
2023-05-12T06:50:23.347Z,10.79
2023-05-12T06:51:20.116Z,11.38
2023-05-12T06:52:17.311Z,10.25
2023-05-12T06:53:14.030Z,10.48
2023-05-12T06:54:10.769Z,11.44
2023-05-12T06:55:08.422Z,11.43
2023-05-12T06:56:05.928Z,11.53
2023-05-12T06:57:02.885Z,10.72
2023-05-12T06:57:59.896Z,11.55
2023-05-12T06:59:01.866Z,11.66
2023-05-12T06:59:58.601Z,10.48
2023-05-12T07:00:55.465Z,11.28
2023-05-12T07:01:52.248Z,10.81
2023-05-12T07:02:49.098Z,10.98
2023-05-12T07:03:46.033Z,11.43
2023-05-12T07:04:42.889Z,11.46
2023-05-12T07:05:39.953Z,11.33
2023-05-12T07:06:37.150Z,8.97
2023-05-12T07:07:33.856Z,10.88
2023-05-12T07:08:30.594Z,10.63
2023-05-12T07:09:27.309Z,11.55
2023-05-12T07:10:24.115Z,11.43
2023-05-12T07:11:20.956Z,10.60
2023-05-12T07:12:17.767Z,11.30
2023-05-12T07:13:14.609Z,11.16
2023-05-12T07:14:11.894Z,9.58
2023-05-12T07:15:09.079Z,10.96
2023-05-12T07:16:06.423Z,10.90
2023-05-12T07:17:04.006Z,10.99
2023-05-12T07:18:00.943Z,11.14
2023-05-12T07:18:57.721Z,11.72
2023-05-12T07:19:54.727Z,11.68
2023-05-12T07:20:51.518Z,11.83
2023-05-12T07:21:49.061Z,11.91
2023-05-12T07:22:45.959Z,11.81
2023-05-12T07:23:42.938Z,11.49
2023-05-12T07:24:39.822Z,9.85
2023-05-12T07:25:36.707Z,11.92
2023-05-12T07:26:33.652Z,12.03
2023-05-12T07:27:30.700Z,9.81
2023-05-12T07:28:27.430Z,11.36
2023-05-12T07:29:24.213Z,11.66
2023-05-12T07:30:22.585Z,11.00
2023-05-12T07:31:19.507Z,10.98
2023-05-12T07:32:16.306Z,9.27
2023-05-12T07:33:13.170Z,11.68
2023-05-12T07:34:10.009Z,11.03
2023-05-12T07:35:07.620Z,10.91
2023-05-12T07:36:09.009Z,11.20
2023-05-12T07:37:06.545Z,11.19
2023-05-12T07:38:03.581Z,11.75
2023-05-12T07:39:00.361Z,11.95
2023-05-12T07:39:57.171Z,11.20
2023-05-12T07:40:53.981Z,11.80
2023-05-12T07:41:52.181Z,10.93
2023-05-12T07:42:48.937Z,11.68
2023-05-12T07:43:46.221Z,12.13
2023-05-12T07:44:44.067Z,10.86
2023-05-12T07:45:41.235Z,11.71
2023-05-12T07:46:37.996Z,9.65
2023-05-12T07:47:34.853Z,12.15
2023-05-12T07:48:31.614Z,11.32
2023-05-12T07:49:28.332Z,12.37
2023-05-12T07:50:25.164Z,12.45
2023-05-12T07:51:22.049Z,12.23
2023-05-12T07:52:18.902Z,10.74
2023-05-12T07:53:15.698Z,10.93
2023-05-12T07:54:30.982Z,11.79
2023-05-12T07:55:27.815Z,10.40
2023-05-12T07:56:24.909Z,12.17
2023-05-12T07:57:21.925Z,12.17
2023-05-12T07:58:18.709Z,11.76
2023-05-12T07:59:15.636Z,12.42
2023-05-12T08:00:13.610Z,11.30
2023-05-12T08:01:10.521Z,11.10
2023-05-12T08:02:08.089Z,11.83
2023-05-12T08:03:06.675Z,11.91
2023-05-12T08:04:03.631Z,12.36
2023-05-12T08:05:00.588Z,12.93
2023-05-12T08:05:57.424Z,12.50
2023-05-12T08:06:54.161Z,13.08
2023-05-12T08:07:50.920Z,12.62
2023-05-12T08:08:47.753Z,13.30
2023-05-12T08:09:44.483Z,13.28
2023-05-12T08:10:41.319Z,12.81
2023-05-12T08:11:38.114Z,13.00
2023-05-12T08:12:34.908Z,13.04
2023-05-12T08:13:31.678Z,12.56
2023-05-12T08:14:28.413Z,12.71
2023-05-12T08:15:25.248Z,11.95
2023-05-12T08:16:22.071Z,12.95
2023-05-12T08:17:18.950Z,11.77
2023-05-12T08:18:16.216Z,11.89
2023-05-12T08:19:13.872Z,12.69
2023-05-12T08:20:11.294Z,13.00
2023-05-12T08:21:08.627Z,12.39
2023-05-12T08:22:05.438Z,12.57
2023-05-12T08:23:02.176Z,12.95
2023-05-12T08:23:58.877Z,12.74
2023-05-12T08:24:55.638Z,12.82
2023-05-12T08:25:52.451Z,12.76
2023-05-12T08:26:49.190Z,12.38
2023-05-12T08:27:46.041Z,13.29
2023-05-12T08:28:42.754Z,11.97
2023-05-12T08:29:39.603Z,12.24
2023-05-12T08:30:36.671Z,11.65
2023-05-12T08:31:33.649Z,11.41
2023-05-12T08:32:30.511Z,12.21
2023-05-12T08:33:28.119Z,12.13
2023-05-12T08:34:25.609Z,13.19
2023-05-12T08:35:24.947Z,12.95
2023-05-12T08:36:21.823Z,12.67
2023-05-12T08:37:18.746Z,12.97
2023-05-12T08:38:15.945Z,10.67
2023-05-12T08:39:13.314Z,12.64
2023-05-12T08:40:18.063Z,13.75
2023-05-12T08:41:23.082Z,12.54
2023-05-12T08:42:28.667Z,13.48
2023-05-12T08:43:32.625Z,13.58
2023-05-12T08:44:31.322Z,13.37
2023-05-12T08:45:29.360Z,13.24
2023-05-12T08:46:26.838Z,13.47
2023-05-12T08:47:25.759Z,12.95
2023-05-12T08:48:25.168Z,13.10
2023-05-12T08:49:24.755Z,13.56
2023-05-12T08:50:23.628Z,13.77
2023-05-12T08:51:22.255Z,13.51
2023-05-12T08:52:22.219Z,13.37
2023-05-12T08:53:21.141Z,13.67
2023-05-12T08:54:22.553Z,12.93
2023-05-12T08:55:23.169Z,13.43
2023-05-12T08:57:23.847Z,13.59
2023-05-12T08:58:30.471Z,13.86
2023-05-12T08:59:37.731Z,12.83
2023-05-12T09:00:38.900Z,13.64
2023-05-12T09:01:36.983Z,12.37
2023-05-12T09:02:51.199Z,12.67
2023-05-12T09:03:52.379Z,13.76
2023-05-12T09:04:50.522Z,13.94
2023-05-12T09:05:47.717Z,13.39
2023-05-12T09:06:45.505Z,13.18
2023-05-12T09:07:47.011Z,13.66
2023-05-12T09:08:44.231Z,13.92
2023-05-12T09:09:50.460Z,13.47
2023-05-12T09:10:48.338Z,13.21
2023-05-12T09:11:45.603Z,14.19
2023-05-12T09:12:46.084Z,13.63
2023-05-12T09:14:02.951Z,14.38
2023-05-12T09:15:08.202Z,13.11
2023-05-12T09:16:09.766Z,14.58
2023-05-12T09:17:07.305Z,13.83
2023-05-12T09:18:04.167Z,12.63
2023-05-12T09:19:03.530Z,13.13
2023-05-12T09:20:02.578Z,13.73
2023-05-12T09:21:01.293Z,14.11
2023-05-12T09:21:58.879Z,12.99
2023-05-12T09:22:58.156Z,13.78
2023-05-12T09:23:59.040Z,14.31
2023-05-12T09:24:55.779Z,14.31
2023-05-12T09:26:03.920Z,13.82
2023-05-12T09:27:01.066Z,14.46
2023-05-12T09:27:57.807Z,13.99
2023-05-12T09:29:06.368Z,13.97
2023-05-12T09:30:03.117Z,14.29
2023-05-12T09:30:59.972Z,14.29
2023-05-12T09:31:59.606Z,12.55
2023-05-12T09:33:25.567Z,14.98
2023-05-12T09:34:43.200Z,14.89
2023-05-12T09:35:45.309Z,13.74
2023-05-12T09:36:42.050Z,14.22
2023-05-12T09:37:40.507Z,14.87
2023-05-12T09:38:37.375Z,14.94
2023-05-12T09:39:35.168Z,15.03
2023-05-12T09:40:31.913Z,14.04
2023-05-12T09:41:28.751Z,14.19
2023-05-12T09:42:30.101Z,14.48
2023-05-12T09:43:27.032Z,15.26
2023-05-12T09:44:25.681Z,14.57
2023-05-12T09:45:24.707Z,13.98
2023-05-12T09:46:22.046Z,14.85
2023-05-12T09:47:18.968Z,13.98
2023-05-12T09:48:15.703Z,14.27
2023-05-12T09:49:12.959Z,14.76
2023-05-12T09:50:10.283Z,12.44
2023-05-12T09:51:10.941Z,13.34
2023-05-12T09:52:07.678Z,14.39
2023-05-12T09:53:06.478Z,14.55
2023-05-12T09:54:05.726Z,13.98
2023-05-12T09:55:16.532Z,14.83
2023-05-12T09:56:14.843Z,14.51
2023-05-12T09:57:17.058Z,13.76
2023-05-12T09:58:16.928Z,14.29
2023-05-12T09:59:14.405Z,14.94
2023-05-12T10:00:31.310Z,14.51
2023-05-12T10:01:31.721Z,14.34
2023-05-12T10:02:34.505Z,14.61
2023-05-12T10:03:34.905Z,15.47
2023-05-12T10:04:49.447Z,15.45
2023-05-12T10:05:53.265Z,15.15
2023-05-12T10:06:52.100Z,15.54
2023-05-12T10:07:51.464Z,15.22
2023-05-12T10:08:54.156Z,15.48
2023-05-12T10:09:50.946Z,15.71
2023-05-12T10:10:50.603Z,14.85
2023-05-12T10:11:51.953Z,14.40
2023-05-12T10:12:51.476Z,12.70
2023-05-12T10:13:48.760Z,14.02
2023-05-12T10:14:47.506Z,13.80
2023-05-12T10:15:45.821Z,14.38
2023-05-12T10:16:46.295Z,14.31
2023-05-12T10:17:44.447Z,13.12
2023-05-12T10:18:44.715Z,14.70
2023-05-12T10:19:42.277Z,14.24
2023-05-12T10:20:40.051Z,13.95
2023-05-12T10:21:37.038Z,14.11
2023-05-12T10:22:35.009Z,13.74
2023-05-12T10:23:32.288Z,13.72
2023-05-12T10:24:29.052Z,14.41
2023-05-12T10:25:26.112Z,15.09
2023-05-12T10:26:23.649Z,14.72
2023-05-12T10:27:22.706Z,15.39
2023-05-12T10:28:20.304Z,14.18
2023-05-12T10:29:17.648Z,15.16
2023-05-12T10:30:15.619Z,15.11
2023-05-12T10:31:14.261Z,15.97
2023-05-12T10:32:11.429Z,14.98
2023-05-12T10:33:11.537Z,15.18
2023-05-12T10:34:18.854Z,16.12
2023-05-12T10:35:16.540Z,16.01
2023-05-12T10:36:19.788Z,15.09
2023-05-12T10:37:16.717Z,15.50
2023-05-12T10:38:19.933Z,14.90
2023-05-12T10:39:17.316Z,15.61
2023-05-12T10:40:24.510Z,16.03
2023-05-12T10:41:32.904Z,15.86
2023-05-12T10:42:38.767Z,14.36
2023-05-12T10:43:42.496Z,14.29
2023-05-12T10:44:51.173Z,15.22
2023-05-12T10:45:48.052Z,14.36
2023-05-12T10:46:45.500Z,15.03
2023-05-12T10:47:43.201Z,14.89
2023-05-12T10:48:57.769Z,15.77
2023-05-12T10:50:00.791Z,15.37
2023-05-12T10:50:57.620Z,16.02
2023-05-12T10:52:00.187Z,16.32
2023-05-12T10:52:57.611Z,15.96
2023-05-12T10:53:58.427Z,15.07
2023-05-12T10:55:04.003Z,15.48
2023-05-12T10:56:08.165Z,15.63
2023-05-12T10:57:17.613Z,15.57
2023-05-12T10:58:18.050Z,14.59
2023-05-12T10:59:17.835Z,13.92
2023-05-12T11:00:16.308Z,14.89
2023-05-12T11:01:14.774Z,15.22
2023-05-12T11:02:43.012Z,15.80
2023-05-12T11:03:40.548Z,14.98
2023-05-12T11:04:51.000Z,15.09
2023-05-12T11:06:03.052Z,16.28
2023-05-12T11:07:01.184Z,15.45
2023-05-12T11:07:59.225Z,16.17
2023-05-12T11:08:57.072Z,15.37
2023-05-12T11:10:02.363Z,16.14
2023-05-12T11:10:59.642Z,16.19
2023-05-12T11:11:56.701Z,15.09
2023-05-12T11:12:54.927Z,16.59
2023-05-12T11:13:51.960Z,16.06
2023-05-12T11:14:49.497Z,15.56
2023-05-12T11:15:50.575Z,15.44
2023-05-12T11:16:47.503Z,15.47
2023-05-12T11:17:44.337Z,15.83
2023-05-12T11:18:41.154Z,14.18
2023-05-12T11:19:40.064Z,14.43
2023-05-12T11:20:37.097Z,14.58
2023-05-12T11:21:34.290Z,15.64
2023-05-12T11:22:31.137Z,15.21
2023-05-12T11:23:29.704Z,15.27
2023-05-12T11:24:26.455Z,14.72
2023-05-12T11:25:25.986Z,15.12
2023-05-12T11:26:22.821Z,14.97
2023-05-12T11:27:23.544Z,14.62
2023-05-12T11:28:20.700Z,16.20
2023-05-12T11:29:21.353Z,15.80
2023-05-12T11:30:18.329Z,15.39
2023-05-12T11:31:22.274Z,13.96
2023-05-12T11:32:19.082Z,15.39
2023-05-12T11:33:21.333Z,14.72
2023-05-12T11:34:25.746Z,15.29
2023-05-12T11:35:22.784Z,15.41
2023-05-12T11:36:21.778Z,15.19
2023-05-12T11:37:21.282Z,14.60
2023-05-12T11:38:19.970Z,14.96
2023-05-12T11:39:18.802Z,15.07
2023-05-12T11:40:21.855Z,15.31
2023-05-12T11:41:24.031Z,15.65
2023-05-12T11:42:23.518Z,15.03
2023-05-12T11:43:22.715Z,14.81
2023-05-12T11:44:25.183Z,15.48
2023-05-12T11:45:28.714Z,15.60
2023-05-12T11:46:30.454Z,14.30
2023-05-12T11:47:27.229Z,14.76
2023-05-12T11:48:34.802Z,15.21
2023-05-12T11:49:32.600Z,15.41
2023-05-12T11:50:29.343Z,14.83
2023-05-12T11:51:28.028Z,14.97
2023-05-12T11:52:25.211Z,15.80
2023-05-12T11:53:21.945Z,16.37
2023-05-12T11:54:19.124Z,14.88
2023-05-12T11:55:22.600Z,15.41
2023-05-12T11:56:23.463Z,15.78
2023-05-12T11:57:31.855Z,15.75
2023-05-12T11:58:30.637Z,15.31
2023-05-12T11:59:35.552Z,15.60
2023-05-12T12:00:35.915Z,15.01
2023-05-12T12:01:34.496Z,15.54
2023-05-12T12:02:31.687Z,15.03
2023-05-12T12:03:28.503Z,15.83
2023-05-12T12:04:41.758Z,15.89
2023-05-12T12:05:43.195Z,16.31
2023-05-12T12:06:44.728Z,16.22
2023-05-12T12:07:41.502Z,15.48
2023-05-12T12:08:40.739Z,16.44
2023-05-12T12:09:43.170Z,16.46
2023-05-12T12:10:48.911Z,16.39
2023-05-12T12:11:45.661Z,15.61
2023-05-12T12:12:43.452Z,16.46
2023-05-12T12:13:50.189Z,16.08
2023-05-12T12:14:47.061Z,15.78
2023-05-12T12:15:43.840Z,15.43
2023-05-12T12:16:40.728Z,15.85
2023-05-12T12:17:39.215Z,15.82
2023-05-12T12:18:36.089Z,16.09
2023-05-12T12:19:33.097Z,14.65
2023-05-12T12:20:29.926Z,15.74
2023-05-12T12:21:26.669Z,14.31
2023-05-12T12:22:23.475Z,15.65
2023-05-12T12:23:20.358Z,15.91
2023-05-12T12:24:17.624Z,15.08
2023-05-12T12:25:14.445Z,15.55
2023-05-12T12:26:11.563Z,14.93
2023-05-12T12:27:08.327Z,15.14
2023-05-12T12:28:05.096Z,15.05
2023-05-12T12:29:01.822Z,16.14
2023-05-12T12:29:58.820Z,14.10
2023-05-12T12:30:55.645Z,15.22
2023-05-12T12:31:52.476Z,15.03
2023-05-12T12:32:49.555Z,14.37
2023-05-12T12:33:46.279Z,15.61
2023-05-12T12:34:45.020Z,16.27
2023-05-12T12:35:41.819Z,16.40
2023-05-12T12:36:38.689Z,16.47
2023-05-12T12:37:35.516Z,16.36
2023-05-12T12:38:32.616Z,16.02
2023-05-12T12:39:29.399Z,15.85
2023-05-12T12:40:26.380Z,15.55
2023-05-12T12:41:23.227Z,15.52